Time;durP1;ratioP1;P1;durP2;ratioP2;P2;SDS_P1;SDS_P2;PMS_P1;PMS_P2;Temp;Humidity;BMP_temperature;BMP_pressure;BME280_temperature;BME280_humidity;BME280_pressure;Samples;Min_cycle;Max_cycle;Signal;HPM_P1;HPM_P2
2023/11/26 00:01:53;;;;;;;4.05;2.03;;;6.40;99.90;;;;;;4150821;28;20029;-76
2023/11/26 00:03:54;;;;;;;4.68;1.83;;;6.40;99.90;;;;;;4163840;28;20406;-76
2023/11/26 00:05:55;;;;;;;4.55;2.10;;;6.40;99.90;;;;;;4169666;28;20037;-75
2023/11/26 00:07:55;;;;;;;8.95;2.28;;;6.40;99.90;;;;;;4167573;28;20399;-76
2023/11/26 00:09:56;;;;;;;6.88;2.40;;;6.40;99.90;;;;;;4156278;28;20542;-76
2023/11/26 00:11:57;;;;;;;6.45;2.70;;;6.40;99.90;;;;;;4166526;28;20039;-77
2023/11/26 00:13:57;;;;;;;5.82;2.10;;;6.50;99.90;;;;;;4137613;28;20030;-76
2023/11/26 00:15:58;;;;;;;5.47;1.92;;;6.40;99.90;;;;;;4175778;28;20051;-76
2023/11/26 00:17:58;;;;;;;8.60;2.22;;;6.40;99.90;;;;;;4153685;28;20477;-76
2023/11/26 00:19:59;;;;;;;5.15;2.28;;;6.40;99.90;;;;;;4171265;28;20045;-76
2023/11/26 00:22:00;;;;;;;5.22;1.92;;;6.40;99.90;;;;;;4151119;28;20044;-76
2023/11/26 00:24:01;;;;;;;5.72;2.13;;;6.40;99.90;;;;;;4171477;28;20503;-77
2023/11/26 00:26:02;;;;;;;7.25;2.42;;;6.40;99.90;;;;;;4167705;28;20033;-77
2023/11/26 00:28:03;;;;;;;5.57;2.10;;;6.40;99.90;;;;;;4170203;28;20072;-78
2023/11/26 00:30:05;;;;;;;6.95;2.35;;;6.40;99.90;;;;;;4171431;28;20052;-78
2023/11/26 00:32:06;;;;;;;7.18;1.83;;;6.40;99.90;;;;;;4166504;28;20491;-78
2023/11/26 00:34:07;;;;;;;7.75;2.35;;;6.40;99.90;;;;;;4158268;28;20037;-79
2023/11/26 00:36:08;;;;;;;7.75;2.65;;;6.30;99.90;;;;;;4170570;28;20037;-78
2023/11/26 00:38:08;;;;;;;7.32;2.08;;;6.30;99.90;;;;;;4170123;28;20461;-79
2023/11/26 00:40:12;;;;;;;5.90;1.85;;;6.40;99.90;;;;;;4150057;28;20029;-79
2023/11/26 00:42:12;;;;;;;9.20;2.47;;;6.30;99.90;;;;;;4148881;28;20507;-78
2023/11/26 00:44:13;;;;;;;8.10;2.53;;;6.30;99.90;;;;;;4146440;28;20030;-75
2023/11/26 00:46:14;;;;;;;6.95;2.50;;;6.30;99.90;;;;;;4168991;28;20506;-75
2023/11/26 00:48:14;;;;;;;6.07;2.42;;;6.30;99.90;;;;;;4168285;28;20491;-75
2023/11/26 00:50:17;;;;;;;8.63;2.80;;;6.20;99.90;;;;;;4171523;28;20044;-76
2023/11/26 00:52:18;;;;;;;7.20;2.33;;;6.20;99.90;;;;;;4149481;28;20531;-75
2023/11/26 00:54:18;;;;;;;9.65;2.95;;;6.20;99.90;;;;;;4167055;28;20432;-75
2023/11/26 00:56:20;;;;;;;7.35;2.88;;;6.20;99.90;;;;;;4150479;28;20065;-76
2023/11/26 00:58:21;;;;;;;6.32;2.45;;;6.20;99.90;;;;;;4148204;28;20450;-75
2023/11/26 01:00:21;;;;;;;5.00;2.22;;;6.10;99.90;;;;;;4130703;28;20042;-75
2023/11/26 01:02:23;;;;;;;7.65;2.80;;;6.00;99.90;;;;;;4172577;28;20115;-75
2023/11/26 01:04:24;;;;;;;7.40;2.40;;;6.00;99.90;;;;;;4157126;28;20029;-75
2023/11/26 01:06:25;;;;;;;11.25;3.38;;;6.00;99.90;;;;;;4166306;28;20398;-75
2023/11/26 01:08:25;;;;;;;10.27;3.28;;;6.10;99.90;;;;;;4143176;28;20057;-75
2023/11/26 01:10:26;;;;;;;12.00;3.10;;;6.00;99.90;;;;;;4147886;28;20537;-76
2023/11/26 01:12:27;;;;;;;9.95;2.75;;;6.10;99.90;;;;;;4149041;28;20550;-75
2023/11/26 01:14:28;;;;;;;8.02;2.78;;;6.10;99.90;;;;;;4161835;28;20061;-75
2023/11/26 01:16:28;;;;;;;5.65;2.25;;;6.00;99.90;;;;;;4146822;28;20053;-75
2023/11/26 01:18:29;;;;;;;6.00;2.08;;;6.00;99.90;;;;;;4167894;28;20099;-76
2023/11/26 01:20:30;;;;;;;8.60;2.33;;;6.00;99.90;;;;;;4151279;28;20482;-76
2023/11/26 01:22:30;;;;;;;6.70;2.38;;;6.00;99.90;;;;;;4166999;28;20121;-75
2023/11/26 01:24:31;;;;;;;5.57;2.20;;;6.00;99.90;;;;;;4168236;28;20040;-75
2023/11/26 01:26:32;;;;;;;5.63;2.00;;;6.00;99.90;;;;;;4146101;28;20036;-76
2023/11/26 01:28:33;;;;;;;3.85;1.98;;;6.00;99.90;;;;;;4169123;28;20112;-75
2023/11/26 01:30:33;;;;;;;6.93;2.30;;;6.00;99.90;;;;;;4166528;28;20041;-75
2023/11/26 01:32:35;;;;;;;5.50;2.10;;;6.00;99.90;;;;;;4169440;28;20024;-75
2023/11/26 01:34:35;;;;;;;5.32;1.67;;;6.00;99.90;;;;;;4166678;28;20049;-75
2023/11/26 01:36:36;;;;;;;7.80;2.92;;;6.00;99.90;;;;;;4169268;28;20025;-75
2023/11/26 01:38:37;;;;;;;9.00;2.63;;;6.00;99.90;;;;;;4169593;28;20091;-75
2023/11/26 01:40:38;;;;;;;12.95;3.20;;;6.00;99.90;;;;;;4167551;28;20037;-75
2023/11/26 01:42:41;;;;;;;11.43;3.10;;;6.00;99.90;;;;;;4168301;28;20075;-75
2023/11/26 01:44:41;;;;;;;6.82;2.72;;;6.00;99.90;;;;;;4170000;28;20037;-76
2023/11/26 01:46:42;;;;;;;7.35;2.42;;;5.90;99.90;;;;;;4166931;28;20082;-75
2023/11/26 01:48:43;;;;;;;10.90;2.90;;;5.90;99.90;;;;;;4160326;28;20033;-75
2023/11/26 01:50:44;;;;;;;6.63;2.42;;;5.90;99.90;;;;;;4166485;28;20074;-75
2023/11/26 01:52:46;;;;;;;8.60;2.63;;;5.90;99.90;;;;;;4145036;28;20030;-75
2023/11/26 01:54:48;;;;;;;4.97;2.13;;;5.90;99.90;;;;;;4165514;28;20036;-77
2023/11/26 01:56:49;;;;;;;11.73;2.90;;;5.90;99.90;;;;;;4142894;28;20072;-75
2023/11/26 01:58:50;;;;;;;6.55;2.55;;;5.90;99.90;;;;;;4166814;28;20489;-75
2023/11/26 02:00:51;;;;;;;10.23;2.92;;;5.80;99.90;;;;;;4148766;28;20038;-75
2023/11/26 02:02:52;;;;;;;11.88;3.40;;;5.90;99.90;;;;;;4167893;28;20029;-76
2023/11/26 02:04:52;;;;;;;14.85;3.40;;;5.80;99.90;;;;;;4173072;28;20033;-75
2023/11/26 02:06:53;;;;;;;6.22;2.63;;;5.80;99.90;;;;;;4164210;28;20042;-75
2023/11/26 02:08:54;;;;;;;11.80;3.22;;;5.80;99.90;;;;;;4152494;28;20041;-75
2023/11/26 02:10:55;;;;;;;11.82;3.38;;;5.80;99.90;;;;;;4163909;28;20029;-75
2023/11/26 02:13:04;;;;;;;9.85;3.05;;;5.80;99.90;;;;;;4162866;28;20592;-75
2023/11/26 02:15:06;;;;;;;10.30;3.38;;;5.80;99.90;;;;;;4145415;28;20029;-76
2023/11/26 02:17:06;;;;;;;5.47;2.88;;;5.70;99.90;;;;;;4146360;28;20485;-75
2023/11/26 02:19:31;;;;;;;8.25;2.95;;;5.70;99.90;;;;;;4147228;28;20092;-77
2023/11/26 02:21:31;;;;;;;7.53;3.28;;;5.70;99.90;;;;;;4145447;28;20143;-75
2023/11/26 02:23:33;;;;;;;9.23;3.33;;;5.70;99.90;;;;;;4165096;28;20032;-75
2023/11/26 02:25:33;;;;;;;7.60;2.97;;;5.70;99.90;;;;;;4167168;28;20029;-78
2023/11/26 02:27:34;;;;;;;6.57;2.70;;;5.70;99.90;;;;;;4161968;28;20025;-75
2023/11/26 02:29:36;;;;;;;7.45;2.90;;;5.70;99.90;;;;;;4157558;28;20124;-76
2023/11/26 02:31:36;;;;;;;9.57;3.08;;;5.70;99.90;;;;;;4150913;28;20487;-75
2023/11/26 02:33:38;;;;;;;7.13;3.08;;;5.60;99.90;;;;;;4168423;28;20048;-75
2023/11/26 02:35:38;;;;;;;7.70;2.92;;;5.60;99.90;;;;;;4169077;28;20036;-77
2023/11/26 02:37:39;;;;;;;11.50;3.78;;;5.60;99.90;;;;;;4173673;28;20053;-77
2023/11/26 02:39:39;;;;;;;7.95;2.78;;;5.60;99.90;;;;;;4147145;28;20038;-77
2023/11/26 02:41:41;;;;;;;6.70;2.97;;;5.60;99.90;;;;;;4146765;28;20121;-77
2023/11/26 02:43:41;;;;;;;8.93;3.15;;;5.60;99.90;;;;;;4166678;28;20092;-77
2023/11/26 02:45:42;;;;;;;8.23;3.08;;;5.50;99.90;;;;;;4169914;28;20029;-77
2023/11/26 02:47:43;;;;;;;8.65;3.13;;;5.50;99.90;;;;;;4171638;28;20037;-77
2023/11/26 02:49:43;;;;;;;10.27;3.15;;;5.50;99.90;;;;;;4173757;28;20115;-77
2023/11/26 02:51:44;;;;;;;10.63;3.40;;;5.50;99.90;;;;;;4155544;28;20527;-77
2023/11/26 02:53:45;;;;;;;7.78;3.15;;;5.50;99.90;;;;;;4158948;28;20475;-77
2023/11/26 02:55:49;;;;;;;11.00;3.60;;;5.40;99.90;;;;;;4176608;28;20036;-77
2023/11/26 02:57:49;;;;;;;9.25;3.20;;;5.40;99.90;;;;;;4171199;28;20033;-77
2023/11/26 02:59:50;;;;;;;6.60;3.30;;;5.40;99.90;;;;;;4175233;28;20495;-77
2023/11/26 03:01:57;;;;;;;11.57;3.03;;;5.30;99.90;;;;;;4143142;28;20038;-77
2023/11/26 03:03:58;;;;;;;7.72;3.33;;;5.30;99.90;;;;;;4158859;28;20178;-77
2023/11/26 03:05:59;;;;;;;8.95;3.45;;;5.30;99.90;;;;;;4172703;28;20041;-75
2023/11/26 03:08:08;;;;;;;8.88;3.63;;;5.30;99.90;;;;;;4171024;28;20608;-76
2023/11/26 03:14:53;;;;;;;8.40;3.30;;;5.20;99.90;;;;;;4170138;28;20545;-75
2023/11/26 03:16:54;;;;;;;7.57;2.92;;;5.20;99.90;;;;;;4152634;28;20041;-75
2023/11/26 03:18:55;;;;;;;10.95;3.15;;;5.20;99.90;;;;;;4169606;28;20045;-75
2023/11/26 03:20:58;;;;;;;11.05;3.20;;;5.20;99.90;;;;;;4148747;28;20030;-76
2023/11/26 03:22:59;;;;;;;7.53;2.83;;;5.20;99.90;;;;;;4169038;28;20065;-75
2023/11/26 03:25:00;;;;;;;6.68;2.58;;;5.20;99.90;;;;;;4169802;28;20041;-75
2023/11/26 03:27:00;;;;;;;7.75;2.97;;;5.20;99.90;;;;;;4154207;28;20041;-74
2023/11/26 03:29:01;;;;;;;6.80;2.75;;;5.20;99.90;;;;;;4170510;28;20048;-76
2023/11/26 03:31:01;;;;;;;7.75;2.75;;;5.20;99.90;;;;;;4171705;28;20033;-75
2023/11/26 03:33:02;;;;;;;8.35;2.97;;;5.20;99.90;;;;;;4149972;28;20047;-75
2023/11/26 03:35:03;;;;;;;14.90;3.38;;;5.20;99.90;;;;;;4175496;28;20069;-76
2023/11/26 03:37:04;;;;;;;14.20;3.40;;;5.20;99.90;;;;;;4153396;28;20427;-76
2023/11/26 03:39:05;;;;;;;9.30;3.75;;;5.20;99.90;;;;;;4150406;28;20037;-75
2023/11/26 03:41:05;;;;;;;11.77;3.58;;;5.20;99.90;;;;;;4170030;28;20029;-75
2023/11/26 03:43:07;;;;;;;7.53;2.90;;;5.20;99.90;;;;;;4166523;28;20033;-75
2023/11/26 03:45:08;;;;;;;9.30;3.00;;;5.20;99.90;;;;;;4172166;28;20566;-75
2023/11/26 03:47:09;;;;;;;11.13;2.95;;;5.10;99.90;;;;;;4176585;28;20095;-77
2023/11/26 03:49:09;;;;;;;7.10;2.88;;;5.10;99.90;;;;;;4170768;28;20048;-77
2023/11/26 03:51:17;;;;;;;9.50;3.40;;;5.10;99.90;;;;;;4151673;28;20451;-77
2023/11/26 03:53:18;;;;;;;10.23;3.88;;;5.10;99.90;;;;;;4170882;28;20041;-77
2023/11/26 03:55:19;;;;;;;8.57;3.33;;;5.10;99.90;;;;;;4150152;28;20543;-77
2023/11/26 03:57:20;;;;;;;12.20;3.33;;;5.10;99.90;;;;;;4170659;28;20483;-77
2023/11/26 03:59:21;;;;;;;6.28;3.05;;;5.10;99.90;;;;;;4151290;28;20049;-77
2023/11/26 04:01:22;;;;;;;9.85;3.53;;;5.10;99.90;;;;;;4152267;28;20048;-77
2023/11/26 04:03:22;;;;;;;11.60;3.05;;;5.10;99.90;;;;;;4166572;28;20068;-77
2023/11/26 04:05:24;;;;;;;10.32;3.60;;;5.10;99.90;;;;;;4140098;28;20069;-78
2023/11/26 04:07:25;;;;;;;7.47;2.97;;;5.10;99.90;;;;;;4171296;28;20028;-77
2023/11/26 04:09:26;;;;;;;10.85;3.47;;;5.10;99.90;;;;;;4173483;28;20033;-77
2023/11/26 04:11:27;;;;;;;9.35;3.53;;;5.10;99.90;;;;;;4153486;28;20112;-77
2023/11/26 04:13:28;;;;;;;9.13;3.40;;;5.10;99.90;;;;;;4165653;28;20080;-77
2023/11/26 04:15:28;;;;;;;7.32;2.97;;;5.10;99.90;;;;;;4171986;28;20033;-77
2023/11/26 04:17:29;;;;;;;6.53;2.63;;;5.10;99.90;;;;;;4168862;28;20036;-77
2023/11/26 04:19:30;;;;;;;7.28;2.90;;;5.10;99.90;;;;;;4153336;28;20454;-76
2023/11/26 04:21:30;;;;;;;9.57;3.20;;;5.10;99.90;;;;;;4173634;28;20440;-77
2023/11/26 04:23:31;;;;;;;12.13;3.50;;;5.10;99.90;;;;;;4138284;28;20770;-77
2023/11/26 04:25:32;;;;;;;7.88;3.00;;;5.10;99.90;;;;;;4153398;28;20037;-77
2023/11/26 04:27:32;;;;;;;7.45;3.03;;;5.10;99.90;;;;;;4172642;28;20037;-77
2023/11/26 04:29:33;;;;;;;9.93;3.40;;;5.10;99.90;;;;;;4166939;28;20052;-77
2023/11/26 04:31:34;;;;;;;9.38;3.53;;;5.10;99.90;;;;;;4170619;28;20045;-77
2023/11/26 04:33:34;;;;;;;8.82;3.22;;;5.10;99.90;;;;;;4152445;28;20026;-77
2023/11/26 04:35:35;;;;;;;10.27;3.10;;;5.10;99.90;;;;;;4168831;28;20036;-77
2023/11/26 04:37:36;;;;;;;9.15;3.42;;;5.10;99.90;;;;;;4141205;28;20495;-77
2023/11/26 04:39:36;;;;;;;8.55;3.10;;;5.10;99.90;;;;;;4144490;28;20178;-77
2023/11/26 04:41:37;;;;;;;8.20;3.30;;;5.00;99.90;;;;;;4132561;28;20503;-77
2023/11/26 04:43:37;;;;;;;8.57;3.00;;;5.00;99.90;;;;;;4165156;28;20123;-78
2023/11/26 04:45:38;;;;;;;7.85;2.78;;;5.00;99.90;;;;;;4171801;28;20382;-77
2023/11/26 04:47:38;;;;;;;7.15;2.72;;;5.10;99.90;;;;;;4154203;28;20034;-77
2023/11/26 04:49:39;;;;;;;8.52;2.80;;;5.10;99.90;;;;;;4168353;28;20053;-77
2023/11/26 04:51:41;;;;;;;9.93;3.00;;;5.10;99.90;;;;;;4170372;28;20025;-77
2023/11/26 04:53:41;;;;;;;13.40;3.03;;;5.10;99.90;;;;;;4146799;28;20033;-77
2023/11/26 04:55:42;;;;;;;8.85;3.40;;;5.00;99.90;;;;;;4170801;28;20436;-79
2023/11/26 04:57:43;;;;;;;13.32;3.40;;;5.10;99.90;;;;;;4168436;28;20514;-77
2023/11/26 04:59:43;;;;;;;7.75;2.80;;;5.00;99.90;;;;;;4153481;28;20029;-79
2023/11/26 05:01:48;;;;;;;10.00;3.38;;;5.00;99.90;;;;;;4148011;28;20037;-78
2023/11/26 05:03:49;;;;;;;8.27;3.22;;;5.00;99.90;;;;;;4170086;28;20040;-78
2023/11/26 05:05:49;;;;;;;10.50;3.30;;;5.00;99.90;;;;;;4154332;28;20394;-79
2023/11/26 05:07:50;;;;;;;8.38;3.15;;;5.00;99.90;;;;;;4164155;28;20044;-79
2023/11/26 05:09:50;;;;;;;6.35;2.80;;;5.00;99.90;;;;;;4128073;28;20066;-80
2023/11/26 05:11:52;;;;;;;7.30;2.97;;;5.00;99.90;;;;;;4149904;28;20030;-79
2023/11/26 05:13:53;;;;;;;9.23;2.93;;;5.00;99.90;;;;;;4150733;28;20037;-79
2023/11/26 05:15:53;;;;;;;9.85;3.60;;;5.00;99.90;;;;;;4146792;28;20560;-79
2023/11/26 05:17:55;;;;;;;10.68;3.17;;;5.00;99.90;;;;;;4146939;28;20403;-78
2023/11/26 05:19:55;;;;;;;12.60;3.55;;;5.00;99.90;;;;;;4154528;28;20049;-78
2023/11/26 05:21:56;;;;;;;7.15;2.88;;;5.00;99.90;;;;;;4150953;28;20492;-79
2023/11/26 05:23:57;;;;;;;7.90;3.00;;;5.00;99.90;;;;;;4171803;28;20407;-78
2023/11/26 05:25:58;;;;;;;6.28;3.17;;;5.00;99.90;;;;;;4167945;28;20029;-76
2023/11/26 05:27:59;;;;;;;6.43;2.60;;;4.90;99.90;;;;;;4150920;28;20036;-75
2023/11/26 05:30:01;;;;;;;7.28;2.97;;;5.00;99.90;;;;;;4150083;28;20052;-75
2023/11/26 05:32:01;;;;;;;8.57;3.47;;;4.90;99.90;;;;;;4157706;28;20037;-75
2023/11/26 05:34:02;;;;;;;6.75;2.80;;;4.90;99.90;;;;;;4164504;28;20029;-74
2023/11/26 05:36:05;;;;;;;16.05;4.28;;;4.90;99.90;;;;;;4151874;28;20536;-76
2023/11/26 05:38:06;;;;;;;6.55;2.95;;;4.90;99.90;;;;;;4145886;28;20048;-75
2023/11/26 05:40:09;;;;;;;8.90;2.90;;;4.90;99.90;;;;;;4134642;28;20522;-75
2023/11/26 05:42:09;;;;;;;8.52;3.35;;;4.90;99.90;;;;;;4134048;28;20038;-75
2023/11/26 05:44:10;;;;;;;13.52;3.85;;;4.90;99.90;;;;;;4164008;28;20052;-74
2023/11/26 05:46:11;;;;;;;7.30;3.05;;;4.90;99.90;;;;;;4158238;28;20047;-75
2023/11/26 05:48:11;;;;;;;11.35;3.50;;;4.90;99.90;;;;;;4169610;28;20411;-75
2023/11/26 05:50:12;;;;;;;9.45;3.60;;;4.90;99.90;;;;;;4149449;28;20037;-75
2023/11/26 05:52:13;;;;;;;8.20;3.10;;;4.90;99.90;;;;;;4150283;28;20105;-76
2023/11/26 05:54:14;;;;;;;10.45;3.58;;;4.90;99.90;;;;;;4151114;28;20050;-76
2023/11/26 05:56:15;;;;;;;13.63;3.90;;;4.90;99.90;;;;;;4151215;28;20037;-75
2023/11/26 05:58:16;;;;;;;13.98;3.45;;;4.90;99.90;;;;;;4154941;28;20140;-75
2023/11/26 06:00:18;;;;;;;10.70;3.70;;;4.90;99.90;;;;;;4149532;28;20033;-75
2023/11/26 06:02:18;;;;;;;7.73;2.73;;;4.90;99.90;;;;;;4150807;28;20042;-76
2023/11/26 06:04:19;;;;;;;10.35;3.22;;;4.90;99.90;;;;;;4145270;28;20057;-75
2023/11/26 06:06:20;;;;;;;8.18;3.08;;;4.90;99.90;;;;;;4170796;28;20095;-79
2023/11/26 06:08:20;;;;;;;7.03;3.17;;;4.90;99.90;;;;;;4167875;28;20056;-80
2023/11/26 06:10:21;;;;;;;7.30;3.13;;;4.90;99.90;;;;;;4159544;28;20060;-79
2023/11/26 06:12:21;;;;;;;12.20;3.60;;;4.90;99.90;;;;;;4166719;28;20040;-79
2023/11/26 06:14:22;;;;;;;8.43;3.75;;;4.90;99.90;;;;;;4169163;28;20036;-79
2023/11/26 06:16:23;;;;;;;8.43;3.60;;;4.90;99.90;;;;;;4130624;28;20513;-77
2023/11/26 06:18:23;;;;;;;6.90;2.90;;;4.90;99.90;;;;;;4170950;28;20425;-79
2023/11/26 06:20:24;;;;;;;10.70;3.47;;;4.90;99.90;;;;;;4150457;28;20099;-79
2023/11/26 06:22:24;;;;;;;6.38;3.00;;;4.90;99.90;;;;;;4170894;28;20041;-79
2023/11/26 06:24:25;;;;;;;11.70;3.95;;;4.90;99.90;;;;;;4172056;28;20033;-78
2023/11/26 06:26:26;;;;;;;7.97;3.20;;;4.90;99.90;;;;;;4168718;28;20056;-79
2023/11/26 06:28:27;;;;;;;8.48;3.38;;;4.90;99.90;;;;;;4115694;28;20044;-79
2023/11/26 06:30:27;;;;;;;7.65;3.17;;;4.90;99.90;;;;;;4143737;28;20872;-79
2023/11/26 06:32:28;;;;;;;8.13;3.33;;;4.90;99.90;;;;;;4159454;28;20454;-77
2023/11/26 06:34:28;;;;;;;10.20;3.70;;;4.90;99.90;;;;;;4148189;28;20104;-79
2023/11/26 06:36:29;;;;;;;7.78;3.05;;;4.90;99.90;;;;;;4157000;28;20667;-79
2023/11/26 06:38:29;;;;;;;10.05;3.05;;;4.90;99.90;;;;;;4153090;28;20029;-78
2023/11/26 06:40:30;;;;;;;7.70;3.42;;;4.90;99.90;;;;;;4163226;28;20033;-78
2023/11/26 06:42:32;;;;;;;9.55;3.40;;;4.90;99.90;;;;;;4174132;28;20522;-78
2023/11/26 06:44:32;;;;;;;8.15;3.60;;;4.90;99.90;;;;;;4145366;28;20573;-80
2023/11/26 06:46:33;;;;;;;8.13;3.65;;;4.90;99.90;;;;;;4140857;28;20033;-79
2023/11/26 06:48:34;;;;;;;9.80;3.67;;;4.90;99.90;;;;;;4128897;28;20052;-79
2023/11/26 06:50:35;;;;;;;10.10;3.35;;;4.90;99.90;;;;;;4160654;28;20041;-78
2023/11/26 06:52:36;;;;;;;8.38;3.08;;;4.90;99.90;;;;;;4149966;28;20026;-79
2023/11/26 06:54:36;;;;;;;5.80;2.88;;;4.90;99.90;;;;;;4152301;28;20040;-78
2023/11/26 06:56:37;;;;;;;8.75;3.35;;;4.90;99.90;;;;;;4117465;28;20033;-78
2023/11/26 06:58:39;;;;;;;7.53;2.92;;;4.90;99.90;;;;;;4172893;28;20037;-79
2023/11/26 07:00:40;;;;;;;7.63;3.53;;;4.90;99.90;;;;;;4173189;28;20025;-78
2023/11/26 07:02:41;;;;;;;3.88;2.70;;;4.90;99.90;;;;;;4153430;28;20045;-79
2023/11/26 07:04:42;;;;;;;8.52;3.42;;;4.90;99.90;;;;;;4152421;28;20029;-79
2023/11/26 07:06:43;;;;;;;8.85;3.83;;;4.90;99.90;;;;;;4153006;28;20022;-79
2023/11/26 07:08:44;;;;;;;8.65;3.05;;;4.80;99.90;;;;;;4148627;28;20311;-76
2023/11/26 07:10:44;;;;;;;10.07;2.97;;;4.90;99.90;;;;;;4153227;28;20075;-76
2023/11/26 07:12:45;;;;;;;7.97;3.47;;;4.90;99.90;;;;;;4168593;28;20049;-76
2023/11/26 07:14:45;;;;;;;12.52;4.15;;;4.90;99.90;;;;;;4170151;28;20022;-76
2023/11/26 07:16:46;;;;;;;7.32;3.53;;;4.90;99.90;;;;;;4167061;28;20056;-74
2023/11/26 07:18:48;;;;;;;10.10;4.07;;;4.90;99.90;;;;;;4168054;28;20026;-74
2023/11/26 07:20:48;;;;;;;6.07;3.30;;;4.90;99.90;;;;;;4168477;28;20426;-74
2023/11/26 07:22:49;;;;;;;8.85;4.15;;;4.90;99.90;;;;;;4170682;28;20065;-75
2023/11/26 07:24:49;;;;;;;8.68;4.03;;;4.90;99.90;;;;;;4161989;28;20046;-74
2023/11/26 07:26:50;;;;;;;6.97;3.90;;;4.90;99.90;;;;;;4160944;28;20495;-74
2023/11/26 07:28:51;;;;;;;8.43;3.78;;;4.90;99.90;;;;;;4168528;28;20040;-74
2023/11/26 07:30:51;;;;;;;9.98;3.50;;;4.90;99.90;;;;;;4166625;28;21250;-74
2023/11/26 07:32:52;;;;;;;8.00;3.42;;;5.00;99.90;;;;;;4165967;28;20029;-74
2023/11/26 07:34:53;;;;;;;13.13;3.90;;;5.00;99.90;;;;;;4166761;28;20395;-74
2023/11/26 07:36:53;;;;;;;7.80;3.38;;;5.00;99.90;;;;;;4169123;28;20029;-74
2023/11/26 07:38:56;;;;;;;9.52;3.70;;;5.00;99.90;;;;;;4170709;28;20082;-75
2023/11/26 07:40:56;;;;;;;;;;;5.00;99.90;;;;;;4163917;28;20502;-75
2023/11/26 07:42:59;;;;;;;8.30;3.30;;;5.00;99.90;;;;;;4169202;28;19917;-74
2023/11/26 07:44:59;;;;;;;8.40;3.42;;;5.00;99.90;;;;;;4170460;28;20033;-74
2023/11/26 07:47:01;;;;;;;6.82;3.50;;;5.00;99.90;;;;;;4165355;28;20082;-74
2023/11/26 07:49:02;;;;;;;7.97;3.22;;;5.00;99.90;;;;;;4163887;28;20124;-74
2023/11/26 07:51:03;;;;;;;8.45;3.47;;;5.00;99.90;;;;;;4163927;28;20111;-74
2023/11/26 07:53:05;;;;;;;9.10;3.72;;;5.10;99.90;;;;;;4157833;28;20375;-74
2023/11/26 07:55:06;;;;;;;6.88;3.83;;;5.10;99.90;;;;;;4121640;28;20033;-74
2023/11/26 07:57:07;;;;;;;8.93;3.70;;;5.10;99.90;;;;;;4171897;28;20047;-74
2023/11/26 07:59:08;;;;;;;10.10;4.50;;;5.10;99.90;;;;;;4170959;28;20444;-74
2023/11/26 08:01:11;;;;;;;13.70;4.68;;;5.10;99.90;;;;;;4170110;28;20060;-76
2023/11/26 08:03:12;;;;;;;14.65;6.38;;;5.20;99.90;;;;;;4146331;28;20029;-74
2023/11/26 08:05:18;;;;;;;20.20;9.02;;;5.20;99.90;;;;;;4147923;28;20049;-75
2023/11/26 08:07:23;;;;;;;16.45;11.75;;;5.20;99.90;;;;;;4153698;28;20034;-75
2023/11/26 08:09:24;;;;;;;14.85;8.57;;;5.20;99.90;;;;;;4171887;28;20415;-74
2023/11/26 08:11:27;;;;;;;10.13;5.72;;;5.20;99.90;;;;;;4149168;28;20103;-75
2023/11/26 08:13:28;;;;;;;12.15;5.13;;;5.20;99.90;;;;;;4172553;28;20091;-74
2023/11/26 08:15:28;;;;;;;8.30;4.05;;;5.20;99.90;;;;;;4169403;28;20046;-74
2023/11/26 08:17:31;;;;;;;10.95;4.57;;;5.20;99.90;;;;;;4171671;28;20116;-74
2023/11/26 08:19:31;;;;;;;10.68;4.25;;;5.30;99.90;;;;;;4170338;28;20041;-74
2023/11/26 08:21:34;;;;;;;12.32;4.97;;;5.30;99.90;;;;;;4172225;28;20029;-75
2023/11/26 08:23:42;;;;;;;;;;;5.30;99.90;;;;;;4148046;28;20160;-74
2023/11/26 08:25:44;;;;;;;10.35;4.55;;;5.30;99.90;;;;;;4169882;28;19909;-74
2023/11/26 08:27:46;;;;;;;12.10;4.03;;;5.40;99.90;;;;;;4164983;28;20029;-75
2023/11/26 08:29:46;;;;;;;10.48;4.00;;;5.40;99.90;;;;;;4163232;28;20172;-76
2023/11/26 08:31:48;;;;;;;20.15;8.73;;;5.40;99.90;;;;;;4137238;28;20538;-76
2023/11/26 08:33:48;;;;;;;17.45;6.57;;;5.40;99.90;;;;;;4171985;28;20051;-76
2023/11/26 08:35:57;;;;;;;9.88;5.07;;;5.40;99.90;;;;;;4165346;28;20494;-76
2023/11/26 08:38:02;;;;;;;11.60;4.70;;;5.50;99.90;;;;;;4165827;28;20527;-76
2023/11/26 08:40:06;;;;;;;10.77;4.93;;;5.50;99.90;;;;;;4143268;28;20034;-76
2023/11/26 08:42:08;;;;;;;9.80;4.07;;;5.50;99.90;;;;;;4149218;28;20088;-76
2023/11/26 08:44:09;;;;;;;11.20;5.43;;;5.60;99.90;;;;;;4147282;28;20041;-76
2023/11/26 08:46:12;;;;;;;10.98;4.65;;;5.60;99.90;;;;;;4171904;28;20033;-75
2023/11/26 08:48:16;;;;;;;13.65;5.35;;;5.60;99.90;;;;;;4146498;28;20041;-76
2023/11/26 08:50:17;;;;;;;13.75;5.07;;;5.60;99.90;;;;;;4163076;28;20065;-76
2023/11/26 08:52:17;;;;;;;8.13;4.38;;;5.60;99.90;;;;;;4157075;28;20372;-75
2023/11/26 08:54:20;;;;;;;7.32;4.00;;;5.70;99.90;;;;;;4173455;28;20174;-76
2023/11/26 08:56:21;;;;;;;;;;;5.70;99.90;;;;;;4172126;28;20049;-78
2023/11/26 08:58:22;;;;;;;12.98;4.88;;;5.80;99.90;;;;;;4170248;28;19916;-75
2023/11/26 09:00:22;;;;;;;11.18;5.13;;;5.80;99.90;;;;;;4161720;28;20051;-78
2023/11/26 09:02:25;;;;;;;13.13;5.15;;;5.80;99.90;;;;;;4169985;28;20064;-76
2023/11/26 09:04:26;;;;;;;7.18;4.07;;;5.80;99.90;;;;;;4159618;28;20678;-77
2023/11/26 09:06:27;;;;;;;11.07;4.82;;;5.90;99.90;;;;;;4148949;28;20037;-76
2023/11/26 09:08:27;;;;;;;14.60;5.20;;;5.90;99.90;;;;;;4167212;28;20510;-77
2023/11/26 09:10:28;;;;;;;10.05;5.47;;;5.90;99.90;;;;;;4157682;28;20045;-78
2023/11/26 09:12:29;;;;;;;14.05;5.57;;;6.00;99.90;;;;;;4168631;28;20029;-77
2023/11/26 09:14:29;;;;;;;10.73;5.15;;;6.00;99.90;;;;;;4166260;28;20037;-77
2023/11/26 09:16:36;;;;;;;10.65;5.35;;;6.00;99.90;;;;;;4145223;28;20044;-76
2023/11/26 09:18:37;;;;;;;13.13;5.57;;;6.10;99.90;;;;;;4145772;28;20056;-75
2023/11/26 09:20:37;;;;;;;9.38;5.10;;;6.10;99.90;;;;;;4155905;28;20029;-74
2023/11/26 09:22:42;;;;;;;11.15;5.70;;;6.20;99.90;;;;;;4159234;28;20144;-75
2023/11/26 09:24:42;;;;;;;9.40;4.60;;;6.20;99.90;;;;;;4163421;28;20041;-74
2023/11/26 09:26:44;;;;;;;13.05;5.80;;;6.30;99.90;;;;;;4145358;28;20076;-74
2023/11/26 09:28:45;;;;;;;10.25;5.13;;;6.30;99.90;;;;;;4147885;28;20051;-75
2023/11/26 09:30:45;;;;;;;17.23;6.25;;;6.30;99.90;;;;;;4166388;28;20896;-75
2023/11/26 09:32:46;;;;;;;20.10;6.32;;;6.40;99.90;;;;;;4143812;28;20061;-74
2023/11/26 09:34:47;;;;;;;11.30;5.43;;;6.40;99.90;;;;;;4148546;28;20041;-75
2023/11/26 09:36:48;;;;;;;13.30;5.82;;;6.40;99.90;;;;;;4148973;28;20573;-72
2023/11/26 09:38:49;;;;;;;12.95;5.70;;;6.50;99.90;;;;;;4149787;28;20115;-73
2023/11/26 09:40:49;;;;;;;13.93;5.35;;;6.50;99.90;;;;;;4119390;28;21563;-73
2023/11/26 09:42:53;;;;;;;14.30;5.70;;;6.50;99.90;;;;;;4142515;28;20486;-72
2023/11/26 09:44:53;;;;;;;14.50;5.72;;;6.50;99.90;;;;;;4144858;28;20029;-74
2023/11/26 09:46:56;;;;;;;12.98;5.35;;;6.60;99.90;;;;;;4161667;28;20583;-73
2023/11/26 09:48:57;;;;;;;12.27;6.13;;;6.60;99.90;;;;;;4163088;28;20441;-74
2023/11/26 09:50:59;;;;;;;14.90;5.20;;;6.70;99.90;;;;;;4165988;28;20143;-76
2023/11/26 09:53:01;;;;;;;13.65;5.88;;;6.70;99.90;;;;;;4167135;28;20569;-73
2023/11/26 09:55:03;;;;;;;19.83;9.13;;;6.70;99.90;;;;;;4172245;28;20465;-74
2023/11/26 09:57:04;;;;;;;14.55;7.28;;;6.70;99.90;;;;;;4170494;28;20526;-72
2023/11/26 09:59:08;;;;;;;13.00;6.10;;;6.80;99.90;;;;;;4128793;28;20065;-72
2023/11/26 10:01:10;;;;;;;14.27;6.07;;;6.90;99.90;;;;;;4112428;28;20041;-73
2023/11/26 10:03:12;;;;;;;10.07;5.20;;;6.90;99.90;;;;;;4127892;28;20089;-73
2023/11/26 10:05:26;;;;;;;10.45;4.88;;;7.00;99.90;;;;;;4123675;28;20037;-75
2023/11/26 10:07:35;;;;;;;9.13;4.90;;;7.00;99.90;;;;;;4061521;28;20128;-74
2023/11/26 10:09:37;;;;;;;14.93;5.95;;;7.00;99.90;;;;;;4077787;28;20457;-75
2023/11/26 10:11:40;;;;;;;9.53;4.97;;;7.10;99.90;;;;;;4066916;28;20039;-75
2023/11/26 10:13:41;;;;;;;13.45;6.32;;;7.10;99.90;;;;;;4119423;28;20640;-75
2023/11/26 10:15:42;;;;;;;15.00;5.25;;;7.10;99.90;;;;;;4059446;28;20502;-74
2023/11/26 10:18:04;;;;;;;11.98;5.75;;;7.20;99.90;;;;;;4169737;28;20044;-74
2023/11/26 10:20:18;;;;;;;11.30;5.18;;;7.20;99.90;;;;;;4169091;28;20051;-74
2023/11/26 10:22:18;;;;;;;9.80;4.70;;;7.30;99.90;;;;;;4170734;28;20037;-74
2023/11/26 10:24:24;;;;;;;9.25;5.30;;;7.30;99.90;;;;;;4167677;28;20073;-74
2023/11/26 10:26:29;;;;;;;9.40;4.88;;;7.30;99.90;;;;;;4167800;28;20041;-74
2023/11/26 10:28:30;;;;;;;15.90;6.25;;;7.30;99.90;;;;;;4164704;28;20040;-75
2023/11/26 10:30:33;;;;;;;11.98;4.82;;;7.30;99.90;;;;;;4168485;28;20040;-75
2023/11/26 10:32:33;;;;;;;12.43;5.05;;;7.40;99.90;;;;;;4173053;28;20497;-74
2023/11/26 10:34:35;;;;;;;8.20;4.72;;;7.40;99.90;;;;;;4167085;28;20044;-75
2023/11/26 10:36:36;;;;;;;9.98;5.10;;;7.40;99.90;;;;;;4169677;28;20407;-75
2023/11/26 10:38:37;;;;;;;11.25;5.68;;;7.40;99.90;;;;;;4155199;28;20041;-75
2023/11/26 10:40:38;;;;;;;14.35;5.60;;;7.50;99.90;;;;;;4170590;28;20385;-75
2023/11/26 10:42:39;;;;;;;11.32;4.78;;;7.50;99.90;;;;;;4172502;28;20513;-74